Time;durP1;ratioP1;P1;durP2;ratioP2;P2;SDS_P1;SDS_P2;PMS_P1;PMS_P2;Temp;Humidity;BMP_temperature;BMP_pressure;BME280_temperature;BME280_humidity;BME280_pressure;Samples;Min_cycle;Max_cycle;Signal;HPM_P1;HPM_P2
2023/09/07 10:01:05;;;;;;;4.72;3.50;;;;;;;23.43;47.04;98508.56;6268323;27;20614;-58
2023/09/07 10:04:10;;;;;;;3.47;3.08;;;;;;;23.38;47.26;98503.25;6229988;28;20244;-60
2023/09/07 10:07:12;;;;;;;4.13;2.92;;;;;;;23.29;48.86;98502.34;6214514;28;20734;-59
2023/09/07 10:10:15;;;;;;;4.68;3.72;;;;;;;23.33;49.56;98488.97;6210771;28;20236;-61
2023/09/07 10:13:30;;;;;;;4.53;3.70;;;;;;;23.33;49.55;98497.91;6211716;28;20263;-61
2023/09/07 10:16:55;;;;;;;7.63;3.00;;;;;;;23.39;51.60;98495.88;6209560;28;20244;-61
2023/09/07 10:20:07;;;;;;;6.18;3.40;;;;;;;23.43;49.33;98494.97;6208699;28;20947;-61
2023/09/07 10:23:09;;;;;;;4.25;3.42;;;;;;;23.57;48.00;98488.69;6208603;28;20830;-59
2023/09/07 10:26:16;;;;;;;3.63;2.92;;;;;;;23.56;48.02;98481.66;6211903;28;20239;-61
2023/09/07 10:29:19;;;;;;;5.38;3.22;;;;;;;23.68;46.03;98480.00;6210059;28;20247;-58
2023/09/07 10:32:21;;;;;;;7.70;3.33;;;;;;;23.72;47.76;98469.31;6211434;28;20239;-61
2023/09/07 10:35:25;;;;;;;3.88;2.92;;;;;;;23.99;44.86;98482.03;6213055;28;20313;-58
2023/09/07 10:38:28;;;;;;;3.67;2.83;;;;;;;23.91;42.21;98440.00;6212924;28;20231;-60
2023/09/07 10:41:41;;;;;;;3.03;2.72;;;;;;;24.06;43.88;98478.84;6207693;28;20262;-60
2023/09/07 10:44:46;;;;;;;5.78;3.03;;;;;;;24.11;42.78;98481.44;6208659;28;20266;-60
2023/09/07 10:47:48;;;;;;;4.80;3.28;;;;;;;24.18;42.15;98470.91;6208660;28;20740;-60
2023/09/07 10:50:51;;;;;;;3.80;3.40;;;;;;;24.53;40.60;98479.28;6210957;28;20250;-61
2023/09/07 10:53:55;;;;;;;4.18;2.90;;;;;;;24.41;40.98;98474.44;6210852;28;20225;-60
2023/09/07 10:57:08;;;;;;;4.20;2.78;;;;;;;24.39;41.66;98474.75;6212611;28;20374;-60
2023/09/07 11:00:11;;;;;;;4.82;3.35;;;;;;;24.42;41.48;98468.66;6232663;28;20236;-60
2023/09/07 11:03:14;;;;;;;4.05;3.15;;;;;;;24.50;39.79;98471.75;6194380;28;20771;-60
2023/09/07 11:06:20;;;;;;;3.40;3.00;;;;;;;24.57;41.34;98466.66;6197339;28;20723;-60
2023/09/07 11:09:25;;;;;;;4.95;3.20;;;;;;;24.65;40.03;98468.63;6187851;28;20240;-61
2023/09/07 11:12:27;;;;;;;4.63;2.60;;;;;;;24.65;42.10;98471.34;6192718;28;20608;-60
2023/09/07 11:15:31;;;;;;;5.65;3.03;;;;;;;24.71;40.62;98470.06;6195317;28;20224;-60
2023/09/07 11:18:35;;;;;;;6.10;2.78;;;;;;;24.71;41.28;98478.25;6192019;28;20232;-61
2023/09/07 11:21:39;;;;;;;3.75;2.70;;;;;;;24.70;41.43;98474.72;6191537;28;20336;-61
2023/09/07 11:24:41;;;;;;;4.30;2.80;;;;;;;24.78;40.54;98464.16;6194382;28;20224;-60
2023/09/07 11:27:43;;;;;;;4.03;3.08;;;;;;;24.93;39.53;98472.72;6191504;28;20724;-60
2023/09/07 11:30:53;;;;;;;7.63;3.20;;;;;;;24.76;40.68;98469.13;6192672;28;20336;-61
2023/09/07 11:33:56;;;;;;;3.70;2.78;;;;;;;24.66;40.43;98451.16;6194485;28;20233;-60
2023/09/07 11:36:58;;;;;;;4.95;3.03;;;;;;;24.83;40.57;98462.13;6195144;28;20311;-62
2023/09/07 11:40:04;;;;;;;5.35;3.05;;;;;;;24.84;40.99;98465.66;6201668;28;20232;-61
2023/09/07 11:43:06;;;;;;;3.78;3.10;;;;;;;24.94;39.17;98466.16;6219413;28;20228;-60
2023/09/07 11:46:08;;;;;;;3.97;2.60;;;;;;;24.85;40.02;98457.16;6215912;28;20243;-61
2023/09/07 11:49:14;;;;;;;2.90;2.60;;;;;;;24.52;41.17;98399.50;6220271;28;20244;-61
2023/09/07 11:52:16;;;;;;;3.13;2.78;;;;;;;25.08;39.17;98449.69;6244898;28;20324;-58
2023/09/07 11:55:19;;;;;;;6.20;3.15;;;;;;;24.91;40.30;98441.44;6219563;28;20751;-58
2023/09/07 11:58:21;;;;;;;2.67;2.47;;;;;;;24.79;41.05;98433.88;6215788;28;20270;-61
2023/09/07 12:01:24;;;;;;;5.40;2.78;;;;;;;24.92;39.93;98440.31;6216674;28;20236;-60
2023/09/07 12:04:26;;;;;;;3.92;2.80;;;;;;;25.03;39.78;98451.75;6217688;28;20312;-60
2023/09/07 12:07:29;;;;;;;3.60;3.30;;;;;;;25.15;39.39;98439.13;6208439;28;20232;-60
2023/09/07 12:10:31;;;;;;;3.00;2.67;;;;;;;25.07;40.65;98450.78;6217151;28;20285;-58
2023/09/07 12:13:33;;;;;;;3.35;2.72;;;;;;;24.93;39.74;98440.03;6218746;28;20335;-60
2023/09/07 12:16:36;;;;;;;6.57;2.88;;;;;;;24.88;40.53;98429.25;6216467;28;20709;-60
2023/09/07 12:19:41;;;;;;;3.75;3.33;;;;;;;25.04;40.79;98428.81;6215951;28;20320;-61
2023/09/07 12:22:44;;;;;;;3.38;2.90;;;;;;;25.07;39.42;98428.19;6213678;28;20274;-61
2023/09/07 12:25:50;;;;;;;3.90;2.95;;;;;;;25.13;40.87;98430.47;6204380;28;20233;-60
2023/09/07 12:28:53;;;;;;;3.58;3.28;;;;;;;25.03;41.85;98430.75;6194198;28;20229;-60
2023/09/07 12:31:56;;;;;;;3.72;3.33;;;;;;;24.96;41.37;98414.03;6192799;28;20271;-59
2023/09/07 12:34:59;;;;;;;3.55;3.22;;;;;;;25.10;42.17;98433.00;6194061;28;20339;-59
2023/09/07 12:38:03;;;;;;;3.28;2.97;;;;;;;25.23;41.38;98423.91;6196813;28;20224;-59
2023/09/07 12:41:05;;;;;;;4.07;3.10;;;;;;;25.03;39.38;98394.50;6191297;28;20228;-60
2023/09/07 12:44:07;;;;;;;3.95;3.03;;;;;;;25.01;40.84;98426.72;6195425;28;20241;-61
2023/09/07 12:47:10;;;;;;;4.45;2.72;;;;;;;24.84;41.26;98411.13;6191421;28;20220;-57
2023/09/07 12:50:12;;;;;;;3.30;2.33;;;;;;;24.73;41.28;98402.47;6193057;28;20233;-60
2023/09/07 12:53:14;;;;;;;3.70;2.78;;;;;;;24.88;40.44;98423.00;6194145;28;20221;-59
2023/09/07 12:56:18;;;;;;;4.47;3.15;;;;;;;25.05;41.40;98416.78;6194423;28;20243;-60
2023/09/07 12:59:20;;;;;;;3.88;3.17;;;;;;;24.92;40.55;98411.13;6188582;28;20238;-61
2023/09/07 13:02:22;;;;;;;3.22;2.90;;;;;;;24.86;42.29;98404.22;6190660;28;20594;-61
2023/09/07 13:05:25;;;;;;;4.43;3.00;;;;;;;25.04;39.11;98410.53;6221833;28;20237;-61
2023/09/07 13:08:29;;;;;;;4.38;2.85;;;;;;;25.01;39.67;98402.19;6206651;28;20255;-58
2023/09/07 13:11:31;;;;;;;3.33;2.72;;;;;;;25.01;39.99;98416.59;6214110;28;20663;-57
2023/09/07 13:14:33;;;;;;;3.17;2.88;;;;;;;25.21;38.86;98399.66;6214217;28;20223;-61
2023/09/07 13:17:36;;;;;;;3.13;2.83;;;;;;;24.99;40.02;98404.44;6209865;28;20307;-60
2023/09/07 13:20:38;;;;;;;3.95;2.90;;;;;;;25.18;39.52;98403.03;6215723;28;20339;-61
2023/09/07 13:23:41;;;;;;;3.75;3.30;;;;;;;25.08;40.29;98408.81;6214034;28;22329;-61
2023/09/07 13:26:47;;;;;;;3.33;2.90;;;;;;;25.10;40.09;98413.94;6216273;28;20227;-60
2023/09/07 13:29:49;;;;;;;3.95;3.00;;;;;;;24.89;41.25;98400.88;6211109;28;20730;-61
2023/09/07 13:32:51;;;;;;;3.88;2.70;;;;;;;24.85;42.03;98410.00;6216116;28;20231;-60
2023/09/07 13:35:53;;;;;;;3.20;2.72;;;;;;;24.72;41.47;98400.81;6217069;28;20240;-60
2023/09/07 13:38:56;;;;;;;4.75;3.03;;;;;;;24.67;42.17;98409.94;6213926;28;20277;-61
2023/09/07 13:41:59;;;;;;;3.35;3.05;;;;;;;24.74;41.18;98401.34;6217554;28;20602;-56
2023/09/07 13:45:01;;;;;;;4.78;3.40;;;;;;;24.75;41.14;98411.09;6215642;28;20262;-57
2023/09/07 13:48:04;;;;;;;3.10;2.80;;;;;;;24.81;41.07;98401.66;6216632;28;20284;-60
2023/09/07 13:51:07;;;;;;;5.03;3.17;;;;;;;24.67;41.99;98392.81;6216757;28;20243;-61
2023/09/07 13:54:09;;;;;;;3.28;2.97;;;;;;;24.59;42.57;98393.59;6216414;28;20315;-58
2023/09/07 13:57:11;;;;;;;4.57;3.08;;;;;;;24.53;42.47;98373.03;6244943;28;20921;-60
2023/09/07 14:00:14;;;;;;;3.75;2.67;;;;;;;24.47;42.82;98391.47;6216863;28;20290;-61
2023/09/07 14:03:16;;;;;;;3.95;3.00;;;;;;;24.44;42.52;98389.38;6216342;28;20212;-62
2023/09/07 14:06:22;;;;;;;4.22;3.08;;;;;;;24.45;42.92;98389.06;6213944;28;20223;-60
2023/09/07 14:09:24;;;;;;;3.35;2.78;;;;;;;24.41;43.50;98387.28;6213673;28;20232;-61
2023/09/07 14:12:27;;;;;;;4.22;3.35;;;;;;;24.27;43.93;98392.78;6212307;28;20689;-60
2023/09/07 14:15:29;;;;;;;3.75;2.90;;;;;;;24.47;42.19;98388.75;6216755;28;20231;-62
2023/09/07 14:18:31;;;;;;;4.35;3.08;;;;;;;24.58;41.32;98376.44;6211903;28;20234;-56
2023/09/07 14:21:34;;;;;;;3.30;2.92;;;;;;;24.52;41.82;98393.25;6219495;28;20822;-60
2023/09/07 14:24:36;;;;;;;3.10;2.60;;;;;;;24.55;41.68;98395.34;6208707;28;20225;-59
2023/09/07 14:27:38;;;;;;;2.95;2.47;;;;;;;24.71;41.14;98394.59;6169309;28;20237;-60
2023/09/07 14:30:40;;;;;;;3.28;2.97;;;;;;;24.59;41.17;98397.13;6167857;28;20237;-61
2023/09/07 14:33:42;;;;;;;5.93;2.80;;;;;;;24.46;42.24;98395.31;6166201;28;20606;-60
2023/09/07 14:36:45;;;;;;;7.50;3.38;;;;;;;24.61;41.39;98380.44;6170357;28;20726;-61
2023/09/07 14:39:49;;;;;;;5.07;2.80;;;;;;;24.41;42.34;98377.19;6172465;28;20264;-61
2023/09/07 14:42:53;;;;;;;5.47;2.88;;;;;;;24.49;40.85;98394.69;6200114;28;21039;-59
2023/09/07 14:45:56;;;;;;;2.75;2.55;;;;;;;24.63;40.77;98391.81;6206858;28;20232;-62
2023/09/07 14:49:00;;;;;;;2.60;2.40;;;;;;;24.39;41.48;98390.34;6178059;28;20240;-61
2023/09/07 14:52:03;;;;;;;4.82;3.08;;;;;;;24.23;42.43;98389.09;6170696;28;20233;-58
2023/09/07 14:55:09;;;;;;;3.38;3.08;;;;;;;24.16;42.78;98384.09;6176452;28;20233;-59
2023/09/07 14:58:12;;;;;;;6.07;2.83;;;;;;;24.06;42.51;98387.09;6171370;28;20234;-61
2023/09/07 15:01:15;;;;;;;3.15;2.75;;;;;;;24.04;42.14;98380.34;6171176;28;20237;-61
2023/09/07 15:04:17;;;;;;;4.57;2.70;;;;;;;23.89;42.81;98378.84;6175835;28;20327;-61
2023/09/07 15:07:21;;;;;;;4.53;2.63;;;;;;;23.82;42.61;98389.38;6194002;28;20239;-60
2023/09/07 15:10:26;;;;;;;5.03;3.17;;;;;;;24.08;41.90;98378.63;6216725;28;20244;-59
2023/09/07 15:13:29;;;;;;;3.95;2.92;;;;;;;23.94;42.30;98376.00;6218985;28;20314;-60
2023/09/07 15:16:31;;;;;;;3.35;2.45;;;;;;;23.82;43.18;98373.03;6217378;28;20224;-61
2023/09/07 15:19:34;;;;;;;4.75;2.75;;;;;;;23.69;43.05;98372.00;6220845;28;20770;-60
2023/09/07 15:22:36;;;;;;;3.58;2.80;;;;;;;23.59;43.74;98369.50;6234631;28;20235;-61
2023/09/07 15:25:39;;;;;;;4.47;2.80;;;;;;;23.48;44.65;98374.38;6219549;28;20235;-61
2023/09/07 15:28:41;;;;;;;5.75;3.00;;;;;;;23.35;44.66;98362.47;6215243;28;20236;-61
2023/09/07 15:31:44;;;;;;;3.15;2.47;;;;;;;23.28;45.31;98362.09;6249461;28;20239;-59
2023/09/07 15:34:47;;;;;;;3.58;2.60;;;;;;;23.19;46.46;98366.66;6218421;28;20283;-60
2023/09/07 15:37:49;;;;;;;3.30;2.50;;;;;;;23.11;44.69;98365.47;6217091;28;20224;-61
2023/09/07 15:40:54;;;;;;;3.03;2.42;;;;;;;23.16;43.55;98368.09;6215949;28;20240;-61
2023/09/07 15:43:58;;;;;;;4.40;2.60;;;;;;;23.06;45.54;98371.03;6220037;28;20353;-58
2023/09/07 15:47:02;;;;;;;3.03;2.50;;;;;;;23.02;44.33;98369.22;6220236;28;20246;-61
2023/09/07 15:50:07;;;;;;;3.15;2.40;;;;;;;23.03;45.09;98376.28;6216510;28;20331;-61
2023/09/07 15:53:12;;;;;;;3.55;2.70;;;;;;;22.99;44.51;98377.97;6216374;28;20260;-61
2023/09/07 15:56:16;;;;;;;5.00;2.88;;;;;;;22.90;45.62;98377.91;6207970;28;20225;-60
2023/09/07 15:59:19;;;;;;;3.00;2.60;;;;;;;22.76;47.43;98379.78;6220317;28;20712;-58
2023/09/07 16:02:23;;;;;;;2.45;2.25;;;;;;;22.63;47.43;98384.97;6218992;28;20237;-61
2023/09/07 16:05:26;;;;;;;4.60;2.60;;;;;;;22.55;47.47;98380.22;6219178;28;20732;-61
2023/09/07 16:08:29;;;;;;;3.30;2.92;;;;;;;22.45;48.50;98383.16;6219764;28;20322;-60
2023/09/07 16:11:32;;;;;;;2.50;2.25;;;;;;;22.35;48.44;98383.34;6217966;28;20232;-61
2023/09/07 16:14:37;;;;;;;5.43;2.90;;;;;;;22.18;49.78;98378.53;6217578;28;20319;-60
2023/09/07 16:17:41;;;;;;;2.60;2.35;;;;;;;21.95;51.32;98369.41;6218117;28;20232;-60
2023/09/07 16:20:45;;;;;;;3.60;2.42;;;;;;;21.85;52.10;98380.44;6250108;28;20902;-60
2023/09/07 16:23:50;;;;;;;4.38;2.78;;;;;;;21.73;52.59;98388.25;6176953;28;20229;-59
2023/09/07 16:26:53;;;;;;;3.20;2.58;;;;;;;21.61;53.09;98386.00;6173161;28;20229;-61
2023/09/07 16:29:56;;;;;;;4.53;3.10;;;;;;;21.41;54.27;98367.34;6170355;28;20244;-61
2023/09/07 16:32:59;;;;;;;3.70;2.90;;;;;;;21.38;54.38;98385.03;6217181;28;20231;-58
2023/09/07 16:36:02;;;;;;;3.17;2.87;;;;;;;21.23;54.78;98385.22;6219507;28;20333;-60
2023/09/07 16:39:05;;;;;;;4.27;2.70;;;;;;;21.12;54.96;98387.25;6213891;28;20231;-60
2023/09/07 16:42:08;;;;;;;5.13;2.80;;;;;;;21.00;55.60;98393.13;6216570;28;20584;-57
2023/09/07 16:45:11;;;;;;;4.80;3.20;;;;;;;20.86;56.75;98389.53;6220014;28;20213;-61
2023/09/07 16:48:14;;;;;;;7.23;3.30;;;;;;;20.64;57.63;98379.28;6214582;28;20215;-61
2023/09/07 16:51:17;;;;;;;5.23;2.90;;;;;;;20.58;57.65;98393.94;6216062;28;20723;-58
2023/09/07 16:54:19;;;;;;;7.27;3.00;;;;;;;20.35;57.75;98392.84;6216167;28;20310;-60
2023/09/07 16:57:21;;;;;;;3.73;2.63;;;;;;;20.32;58.40;98394.22;6216978;28;20242;-59
2023/09/07 17:00:23;;;;;;;4.30;2.90;;;;;;;20.17;59.25;98396.28;6204697;28;20314;-59
2023/09/07 17:03:25;;;;;;;4.50;3.20;;;;;;;20.07;60.10;98397.19;6218471;28;20307;-58
2023/09/07 17:06:27;;;;;;;4.33;2.70;;;;;;;19.88;60.57;98401.69;6217628;28;20223;-59
2023/09/07 17:09:32;;;;;;;4.23;2.97;;;;;;;19.68;62.27;98400.78;6215701;28;20263;-59
2023/09/07 17:12:34;;;;;;;6.93;2.87;;;;;;;19.55;62.48;98404.91;6212540;28;20232;-59
2023/09/07 17:15:36;;;;;;;3.80;3.30;;;;;;;19.40;63.40;98402.31;6213752;28;20299;-60
2023/09/07 17:18:38;;;;;;;3.63;3.30;;;;;;;19.26;64.33;98402.16;6216929;28;20232;-60
2023/09/07 17:21:40;;;;;;;5.23;3.10;;;;;;;19.10;65.19;98403.31;6212205;28;20743;-58
2023/09/07 17:24:42;;;;;;;3.07;2.77;;;;;;;18.92;66.50;98404.78;6217364;28;20254;-61
2023/09/07 17:27:46;;;;;;;3.80;3.00;;;;;;;18.74;66.87;98403.53;6218143;28;20223;-60
2023/09/07 17:30:47;;;;;;;3.80;3.40;;;;;;;18.61;67.00;98408.66;6214606;28;20700;-61
2023/09/07 17:33:50;;;;;;;2.90;2.50;;;;;;;18.44;68.62;98412.50;6215058;28;20236;-60
2023/09/07 17:36:52;;;;;;;4.50;3.33;;;;;;;18.33;68.66;98419.03;6215309;28;20715;-61
2023/09/07 17:39:55;;;;;;;6.03;3.07;;;;;;;18.21;69.11;98421.19;6215607;28;20651;-61
2023/09/07 17:42:59;;;;;;;4.43;3.23;;;;;;;18.10;69.66;98425.00;6216553;28;20238;-57
2023/09/07 17:46:01;;;;;;;4.83;3.37;;;;;;;17.98;69.84;98425.28;6215467;28;20243;-59
2023/09/07 17:49:03;;;;;;;4.60;3.37;;;;;;;17.84;70.35;98424.22;6216782;28;20227;-60
2023/09/07 17:52:06;;;;;;;8.50;4.13;;;;;;;17.72;70.95;98430.66;6216555;28;20227;-58
2023/09/07 17:55:08;;;;;;;15.27;3.90;;;;;;;17.58;72.13;98434.94;6214228;28;20367;-61
2023/09/07 17:58:10;;;;;;;8.47;3.30;;;;;;;17.41;72.87;98432.53;6216641;28;20231;-58
2023/09/07 18:01:14;;;;;;;5.73;3.87;;;;;;;17.34;73.31;98436.53;6213115;28;20265;-61
2023/09/07 18:04:16;;;;;;;5.87;3.43;;;;;;;17.14;73.71;98435.44;6212777;28;20608;-59
2023/09/07 18:07:18;;;;;;;4.10;3.30;;;;;;;17.12;74.12;98437.59;6211992;28;20228;-60
2023/09/07 18:10:20;;;;;;;3.87;3.47;;;;;;;17.06;74.15;98443.22;6203468;28;20319;-60
2023/09/07 18:13:22;;;;;;;6.20;3.90;;;;;;;16.96;74.99;98439.44;6195562;28;20431;-60
2023/09/07 18:16:26;;;;;;;8.40;3.67;;;;;;;16.85;75.34;98445.06;6196915;28;20255;-59
2023/09/07 18:19:28;;;;;;;4.57;3.40;;;;;;;16.76;75.71;98445.53;6197752;28;20350;-61
2023/09/07 18:22:30;;;;;;;4.33;3.33;;;;;;;16.69;75.88;98444.94;6196542;28;20310;-59
2023/09/07 18:25:36;;;;;;;6.60;3.87;;;;;;;16.58;76.64;98439.78;6193152;28;20221;-60
2023/09/07 18:28:38;;;;;;;6.37;3.80;;;;;;;16.36;77.58;98430.00;6196390;28;20320;-61
2023/09/07 18:31:40;;;;;;;7.40;3.97;;;;;;;16.35;77.97;98447.19;6192637;28;20320;-60
2023/09/07 18:34:42;;;;;;;4.10;3.60;;;;;;;16.15;78.68;98437.09;6196349;28;20229;-59
2023/09/07 18:37:45;;;;;;;6.43;4.07;;;;;;;16.14;79.12;98453.50;6198417;28;20229;-60
2023/09/07 18:40:47;;;;;;;4.47;3.43;;;;;;;16.05;79.68;98455.06;6193513;28;20484;-61
2023/09/07 18:43:50;;;;;;;5.07;3.57;;;;;;;15.96;80.41;98449.38;6194872;28;20239;-61
2023/09/07 18:46:55;;;;;;;5.57;4.40;;;;;;;15.89;81.02;98451.44;6193769;28;20232;-60
2023/09/07 18:49:57;;;;;;;6.37;3.83;;;;;;;15.73;81.68;98454.00;6195840;28;20231;-59
2023/09/07 18:52:58;;;;;;;5.33;4.13;;;;;;;15.65;82.25;98462.53;6194666;28;20233;-57
2023/09/07 18:56:02;;;;;;;6.20;3.57;;;;;;;15.58;82.61;98461.09;6187989;28;20228;-58
2023/09/07 18:59:04;;;;;;;4.90;3.97;;;;;;;15.45;83.49;98456.94;6211734;28;20248;-61
2023/09/07 19:02:06;;;;;;;5.40;3.40;;;;;;;15.33;83.80;98459.78;6219231;28;20229;-58
2023/09/07 19:05:09;;;;;;;8.17;4.53;;;;;;;15.40;83.45;98462.25;6219918;28;20355;-62
2023/09/07 19:08:11;;;;;;;5.83;4.40;;;;;;;15.39;83.48;98460.66;6216787;28;20227;-61
2023/09/07 19:11:14;;;;;;;4.47;3.93;;;;;;;15.35;83.79;98468.38;6220066;28;20223;-58
2023/09/07 19:14:17;;;;;;;4.20;3.70;;;;;;;15.33;83.85;98462.47;6219453;28;20239;-60
2023/09/07 19:17:19;;;;;;;6.70;3.87;;;;;;;15.30;83.73;98464.84;6216885;28;20251;-61
2023/09/07 19:20:21;;;;;;;5.37;4.07;;;;;;;15.23;84.28;98465.88;6219684;28;20234;-61
2023/09/07 19:23:23;;;;;;;12.27;4.53;;;;;;;15.15;84.70;98460.13;6217860;28;20232;-58
2023/09/07 19:26:34;;;;;;;5.53;4.17;;;;;;;15.14;84.26;98459.31;6219061;28;20236;-57
2023/09/07 19:29:38;;;;;;;5.17;3.93;;;;;;;15.09;84.71;98458.47;6220246;28;20272;-60
2023/09/07 19:32:40;;;;;;;9.47;4.17;;;;;;;15.02;85.22;98447.91;6214583;28;20231;-58
2023/09/07 19:35:42;;;;;;;8.13;3.97;;;;;;;14.97;85.37;98458.56;6218132;28;20224;-59
2023/09/07 19:38:49;;;;;;;5.50;4.20;;;;;;;14.91;85.80;98454.22;6221061;28;20307;-59
2023/09/07 19:41:51;;;;;;;5.37;3.77;;;;;;;14.85;86.27;98458.72;6215273;28;20684;-57
2023/09/07 19:44:54;;;;;;;5.40;4.00;;;;;;;14.72;85.69;98443.00;6220499;28;20232;-60
2023/09/07 19:47:56;;;;;;;4.07;3.77;;;;;;;14.77;86.34;98455.66;6217966;28;20224;-58
2023/09/07 19:50:58;;;;;;;4.70;3.90;;;;;;;14.71;86.82;98460.16;6214215;28;20236;-59
2023/09/07 19:54:00;;;;;;;6.57;4.30;;;;;;;14.45;86.84;98416.09;6219070;28;20328;-60
2023/09/07 19:57:03;;;;;;;4.20;3.80;;;;;;;14.58;87.81;98447.94;6219228;28;20263;-58
2023/09/07 20:00:07;;;;;;;5.43;4.30;;;;;;;14.54;87.97;98444.13;6215009;28;20617;-59
2023/09/07 20:03:09;;;;;;;6.83;3.90;;;;;;;14.49;88.22;98446.75;6217966;28;20220;-60
2023/09/07 20:06:11;;;;;;;3.83;3.50;;;;;;;14.42;88.55;98443.38;6193275;28;20213;-56
2023/09/07 20:09:17;;;;;;;4.57;3.97;;;;;;;14.36;88.82;98445.19;6219168;28;20209;-61
2023/09/07 20:12:19;;;;;;;5.60;4.00;;;;;;;14.31;89.33;98449.66;6217276;28;20249;-59
2023/09/07 20:15:21;;;;;;;5.90;4.33;;;;;;;14.27;89.31;98448.53;6251626;28;20259;-59
2023/09/07 20:18:23;;;;;;;5.93;4.40;;;;;;;14.22;89.68;98448.47;6219953;28;20368;-58
2023/09/07 20:21:25;;;;;;;4.77;3.73;;;;;;;14.13;89.95;98446.19;6215133;28;20224;-59
2023/09/07 20:24:28;;;;;;;5.30;4.40;;;;;;;14.04;90.41;98430.78;6216746;28;20236;-60
2023/09/07 20:27:29;;;;;;;4.20;3.80;;;;;;;14.07;90.76;98447.19;6217896;28;20243;-57
2023/09/07 20:30:31;;;;;;;5.90;3.87;;;;;;;14.04;90.87;98447.69;6219341;28;20231;-56
2023/09/07 20:33:33;;;;;;;4.97;3.97;;;;;;;14.02;90.88;98451.66;6214107;28;20727;-58
2023/09/07 20:36:36;;;;;;;7.80;4.70;;;;;;;13.85;91.44;98427.56;6218288;28;20239;-60
2023/09/07 20:39:38;;;;;;;4.77;4.00;;;;;;;13.91;91.60;98432.75;6219616;28;20753;-60
2023/09/07 20:42:40;;;;;;;4.47;4.07;;;;;;;13.90;91.82;98443.72;6218450;28;20239;-60
2023/09/07 20:45:41;;;;;;;4.03;3.50;;;;;;;13.88;91.65;98440.47;6217240;28;20297;-60
2023/09/07 20:48:43;;;;;;;9.73;4.50;;;;;;;13.83;92.19;98440.38;6218103;28;20236;-60
2023/09/07 20:51:46;;;;;;;4.80;4.30;;;;;;;13.79;92.02;98437.41;6217541;28;20231;-59
2023/09/07 20:54:48;;;;;;;7.40;5.60;;;;;;;13.74;92.93;98436.47;6219405;28;20693;-58
2023/09/07 20:57:51;;;;;;;7.80;4.60;;;;;;;13.68;93.04;98438.25;6212876;28;20725;-58
2023/09/07 21:00:54;;;;;;;7.17;4.30;;;;;;;13.64;93.48;98440.63;6213480;28;20243;-59
2023/09/07 21:03:57;;;;;;;7.13;4.37;;;;;;;13.61;93.47;98441.13;6218269;28;20232;-60
2023/09/07 21:06:59;;;;;;;6.40;5.07;;;;;;;13.58;94.02;98443.47;6210170;28;20319;-60
2023/09/07 21:10:01;;;;;;;9.83;7.77;;;;;;;13.43;94.21;98425.28;6217966;28;21081;-57
2023/09/07 21:13:03;;;;;;;5.53;4.73;;;;;;;13.50;94.43;98443.88;6210217;28;20279;-57
2023/09/07 21:16:05;;;;;;;5.53;4.60;;;;;;;13.35;94.75;98423.00;6218250;28;20347;-59
2023/09/07 21:19:08;;;;;;;6.83;4.20;;;;;;;13.43;95.02;98441.34;6217832;28;20231;-61
2023/09/07 21:22:11;;;;;;;6.83;4.30;;;;;;;13.40;95.09;98439.97;6216113;28;20682;-59
2023/09/07 21:25:13;;;;;;;5.30;4.30;;;;;;;13.38;95.33;98428.66;6213843;28;20239;-59
2023/09/07 21:28:15;;;;;;;7.17;4.70;;;;;;;13.38;95.65;98428.66;6216332;28;20239;-59
2023/09/07 21:31:18;;;;;;;4.57;3.73;;;;;;;13.31;95.54;98422.66;6217476;28;20239;-60
2023/09/07 21:34:20;;;;;;;6.93;4.40;;;;;;;13.19;95.80;98403.16;6216944;28;20237;-59
2023/09/07 21:37:22;;;;;;;6.63;4.50;;;;;;;13.31;96.11;98430.69;6216941;28;20701;-59
2023/09/07 21:40:24;;;;;;;7.97;4.30;;;;;;;13.27;96.34;98426.88;6212349;28;20254;-59
2023/09/07 21:43:27;;;;;;;5.07;4.53;;;;;;;13.24;97.31;98421.19;6216069;28;20234;-58
2023/09/07 21:46:30;;;;;;;5.20;4.17;;;;;;;13.24;96.79;98419.31;6216096;28;20228;-58
2023/09/07 21:49:32;;;;;;;5.90;4.80;;;;;;;13.21;96.73;98425.13;6218476;28;20232;-55
2023/09/07 21:52:33;;;;;;;5.60;4.43;;;;;;;13.15;97.57;98424.25;6212954;28;20251;-60
2023/09/07 21:55:36;;;;;;;6.10;4.90;;;;;;;13.11;98.00;98423.09;6215452;28;20262;-59
2023/09/07 21:58:38;;;;;;;5.80;4.93;;;;;;;13.05;98.17;98412.50;6215224;28;20787;-59
2023/09/07 22:01:40;;;;;;;7.57;4.40;;;;;;;13.00;98.45;98405.22;6215798;28;20257;-60
2023/09/07 22:04:42;;;;;;;5.90;4.80;;;;;;;13.04;99.20;98414.38;6209890;28;20239;-60
2023/09/07 22:07:44;;;;;;;6.20;5.33;;;;;;;12.99;99.51;98402.78;6209668;28;20274;-60
2023/09/07 22:10:46;;;;;;;8.47;6.50;;;;;;;12.87;99.30;98400.16;6214332;28;20240;-60
2023/09/07 22:13:49;;;;;;;7.43;5.13;;;;;;;12.95;100.00;98409.66;6210375;28;20657;-59
2023/09/07 22:16:51;;;;;;;5.27;4.77;;;;;;;12.93;100.00;98412.56;6216504;28;20253;-57
2023/09/07 22:19:53;;;;;;;5.20;4.37;;;;;;;12.88;100.00;98410.63;6216461;28;20239;-59
2023/09/07 22:22:55;;;;;;;5.43;4.73;;;;;;;12.85;100.00;98403.06;6212753;28;20323;-60
2023/09/07 22:25:57;;;;;;;5.63;4.70;;;;;;;12.84;100.00;98411.31;6213377;28;20604;-60
2023/09/07 22:28:59;;;;;;;5.93;4.80;;;;;;;12.81;100.00;98401.94;6250084;28;20299;-60
2023/09/07 22:32:02;;;;;;;6.43;4.93;;;;;;;12.80;100.00;98410.97;6215967;28;20718;-57
2023/09/07 22:35:05;;;;;;;7.93;5.20;;;;;;;12.78;100.00;98409.59;6244870;28;20244;-61
2023/09/07 22:38:07;;;;;;;8.63;5.20;;;;;;;12.76;100.00;98407.19;6212099;28;20359;-60
2023/09/07 22:41:09;;;;;;;7.00;5.00;;;;;;;12.69;100.00;98397.66;6212410;28;20229;-60
2023/09/07 22:44:11;;;;;;;4.77;4.37;;;;;;;12.67;100.00;98394.44;6215754;28;20237;-58
2023/09/07 22:47:13;;;;;;;6.47;5.23;;;;;;;12.70;100.00;98401.97;6217893;28;20224;-56
2023/09/07 22:50:15;;;;;;;5.17;4.27;;;;;;;12.67;100.00;98405.13;6210692;28;20259;-59
2023/09/07 22:53:22;;;;;;;5.70;5.03;;;;;;;12.64;100.00;98409.06;6217745;28;20255;-61
2023/09/07 22:56:24;;;;;;;7.10;6.20;;;;;;;12.63;100.00;98408.25;6211653;28;20224;-57
2023/09/07 22:59:26;;;;;;;10.73;6.47;;;;;;;12.62;100.00;98401.28;6217418;28;20358;-56
2023/09/07 23:02:28;;;;;;;6.93;5.10;;;;;;;12.60;100.00;98406.03;6217540;28;20223;-60
2023/09/07 23:05:30;;;;;;;9.57;5.00;;;;;;;12.56;100.00;98398.75;6220272;28;20234;-60
2023/09/07 23:08:32;;;;;;;6.63;5.13;;;;;;;12.57;100.00;98405.72;6220433;28;20239;-59
2023/09/07 23:11:35;;;;;;;5.03;4.17;;;;;;;12.42;100.00;98394.72;6217963;28;20240;-56
2023/09/07 23:14:38;;;;;;;5.43;4.70;;;;;;;12.53;100.00;98407.25;6221018;28;20263;-58
2023/09/07 23:17:40;;;;;;;7.17;4.57;;;;;;;12.50;100.00;98400.50;6219311;28;20235;-60
2023/09/07 23:20:42;;;;;;;6.53;4.90;;;;;;;12.49;100.00;98404.22;6220093;28;20228;-56
2023/09/07 23:23:45;;;;;;;4.97;4.30;;;;;;;12.48;100.00;98399.94;6221546;28;20371;-58
2023/09/07 23:26:47;;;;;;;6.23;4.70;;;;;;;12.46;100.00;98399.34;6219603;28;20220;-56
2023/09/07 23:29:49;;;;;;;7.43;6.00;;;;;;;12.42;100.00;98400.88;6214780;28;20306;-60
2023/09/07 23:32:51;;;;;;;7.23;5.30;;;;;;;12.30;100.00;98378.72;6222602;28;20239;-60
2023/09/07 23:35:53;;;;;;;6.20;4.43;;;;;;;12.40;100.00;98390.41;6223061;28;20729;-60
2023/09/07 23:38:55;;;;;;;5.13;4.60;;;;;;;12.39;100.00;98396.00;6218926;28;20728;-59
2023/09/07 23:41:57;;;;;;;5.43;4.93;;;;;;;12.37;100.00;98390.09;6226872;28;20278;-59
2023/09/07 23:44:59;;;;;;;6.90;4.60;;;;;;;12.34;100.00;98391.34;6219383;28;20228;-58
2023/09/07 23:48:01;;;;;;;6.03;4.80;;;;;;;12.32;100.00;98396.13;6218682;28;20603;-60
2023/09/07 23:51:03;;;;;;;4.83;4.33;;;;;;;12.29;100.00;98393.13;6217003;28;20317;-57
2023/09/07 23:54:04;;;;;;;5.67;5.07;;;;;;;12.27;100.00;98398.69;6221781;28;20239;-60
2023/09/07 23:57:07;;;;;;;5.77;4.70;;;;;;;12.20;100.00;98378.50;6216857;28;20208;-55
